Time;durP1;ratioP1;P1;durP2;ratioP2;P2;SDS_P1;SDS_P2;PMS_P1;PMS_P2;Temp;Humidity;BMP_temperature;BMP_pressure;BME280_temperature;BME280_humidity;BME280_pressure;Samples;Min_cycle;Max_cycle;Signal;HPM_P1;HPM_P2
2023/07/01 00:01:23;;;;;;;9.48;2.13;;;17.70;99.90;;;;;;4987603;28;20033;-75
2023/07/01 00:03:49;;;;;;;8.75;2.70;;;17.70;99.90;;;;;;5020283;28;20168;-75
2023/07/01 00:06:14;;;;;;;11.60;2.60;;;17.70;99.90;;;;;;5020225;28;20286;-75
2023/07/01 00:08:41;;;;;;;11.32;2.47;;;17.70;99.90;;;;;;5019890;28;20026;-74
2023/07/01 00:11:07;;;;;;;11.43;2.72;;;17.70;99.90;;;;;;4984148;28;20213;-74
2023/07/01 00:13:33;;;;;;;8.27;2.45;;;17.70;99.90;;;;;;5010165;28;20081;-75
2023/07/01 00:15:59;;;;;;;9.07;2.45;;;17.70;99.90;;;;;;5019948;28;20081;-74
2023/07/01 00:18:26;;;;;;;9.82;2.53;;;17.70;99.90;;;;;;5003231;28;20188;-74
2023/07/01 00:20:53;;;;;;;10.82;2.58;;;17.70;99.90;;;;;;5003651;28;20086;-74
2023/07/01 00:23:19;;;;;;;10.18;2.50;;;17.70;99.90;;;;;;5003423;28;20026;-74
2023/07/01 00:25:45;;;;;;;9.50;2.42;;;17.70;99.90;;;;;;5019592;28;20339;-75
2023/07/01 00:28:11;;;;;;;9.25;2.30;;;17.80;99.90;;;;;;5019328;28;20050;-75
2023/07/01 00:30:37;;;;;;;11.77;3.28;;;17.70;99.90;;;;;;5001193;28;20041;-75
2023/07/01 00:33:05;;;;;;;10.13;2.42;;;17.70;99.90;;;;;;5019492;28;20224;-74
2023/07/01 00:35:31;;;;;;;11.88;2.65;;;17.70;99.90;;;;;;5003133;28;20272;-75
2023/07/01 00:37:57;;;;;;;9.00;2.42;;;17.70;99.90;;;;;;5003082;28;20033;-75
2023/07/01 00:40:23;;;;;;;7.40;2.28;;;17.70;99.90;;;;;;5019128;28;20026;-74
2023/07/01 00:42:49;;;;;;;9.20;2.88;;;17.70;99.90;;;;;;5002487;28;20321;-74
2023/07/01 00:45:14;;;;;;;9.45;2.83;;;17.70;99.90;;;;;;5019484;28;20275;-74
2023/07/01 00:47:40;;;;;;;8.00;2.58;;;17.70;99.90;;;;;;5019132;28;20279;-75
2023/07/01 00:50:10;;;;;;;8.88;2.40;;;17.70;99.90;;;;;;5019375;28;20097;-74
2023/07/01 00:52:40;;;;;;;9.27;2.92;;;17.70;99.90;;;;;;5019109;28;20033;-75
2023/07/01 00:55:10;;;;;;;10.60;2.58;;;17.80;99.90;;;;;;5003217;28;20290;-75
2023/07/01 00:57:36;;;;;;;9.93;2.70;;;17.80;99.90;;;;;;5018990;28;20026;-74
2023/07/01 01:00:10;;;;;;;11.68;2.80;;;17.80;99.90;;;;;;5019190;28;20267;-75
2023/07/01 01:03:08;;;;;;;10.07;2.38;;;17.80;99.90;;;;;;5002591;28;20025;-74
2023/07/01 01:05:43;;;;;;;8.38;2.22;;;17.80;99.90;;;;;;5019115;28;20054;-75
2023/07/01 01:08:22;;;;;;;8.80;2.50;;;17.80;99.90;;;;;;5018959;28;20041;-75
2023/07/01 01:10:49;;;;;;;9.38;2.70;;;17.80;99.90;;;;;;5002544;28;20022;-75
2023/07/01 01:13:17;;;;;;;9.40;2.63;;;17.80;99.90;;;;;;5018908;28;20063;-75
2023/07/01 01:15:43;;;;;;;11.55;2.70;;;17.80;99.90;;;;;;5002622;28;20032;-75
2023/07/01 01:18:16;;;;;;;9.77;2.53;;;17.70;99.90;;;;;;5013712;28;20182;-75
2023/07/01 01:20:43;;;;;;;10.77;2.92;;;17.80;99.90;;;;;;5000517;28;20152;-75
2023/07/01 01:23:14;;;;;;;10.07;2.72;;;17.70;99.90;;;;;;5018868;28;20026;-75
2023/07/01 01:25:43;;;;;;;9.43;2.63;;;17.70;99.90;;;;;;5018830;28;20046;-75
2023/07/01 01:28:09;;;;;;;10.45;3.08;;;17.80;99.90;;;;;;5018449;28;20059;-75
2023/07/01 01:30:35;;;;;;;8.13;2.53;;;17.80;99.90;;;;;;5002415;28;20151;-75
2023/07/01 01:33:02;;;;;;;8.32;2.30;;;17.80;99.90;;;;;;5002372;28;20083;-75
2023/07/01 01:35:28;;;;;;;7.97;2.88;;;17.70;99.90;;;;;;5019783;28;20127;-75
2023/07/01 01:38:16;;;;;;;9.50;2.40;;;17.70;99.90;;;;;;5018551;28;20236;-75
2023/07/01 01:41:16;;;;;;;9.98;2.58;;;17.70;99.90;;;;;;5002416;28;20037;-75
2023/07/01 01:44:04;;;;;;;7.47;2.28;;;17.70;99.90;;;;;;5006095;28;20048;-75
2023/07/01 01:46:31;;;;;;;9.80;2.50;;;17.70;99.90;;;;;;5018357;28;20099;-76
2023/07/01 01:49:03;;;;;;;11.30;2.60;;;17.70;99.90;;;;;;5002385;28;20260;-75
2023/07/01 01:51:31;;;;;;;12.23;2.85;;;17.70;99.90;;;;;;5002173;28;20046;-75
2023/07/01 01:53:58;;;;;;;11.60;2.88;;;17.60;99.90;;;;;;5021798;28;20025;-74
2023/07/01 01:56:25;;;;;;;9.18;2.78;;;17.60;99.90;;;;;;5022027;28;20037;-75
2023/07/01 01:58:51;;;;;;;10.27;2.60;;;17.60;99.90;;;;;;5005878;28;20018;-76
2023/07/01 02:01:17;;;;;;;9.43;2.88;;;17.50;99.90;;;;;;5021813;28;20056;-75
2023/07/01 02:03:45;;;;;;;8.75;2.65;;;17.40;99.90;;;;;;5005415;28;20029;-75
2023/07/01 02:06:11;;;;;;;10.48;3.10;;;17.40;99.90;;;;;;5021788;28;20049;-75
2023/07/01 02:08:36;;;;;;;12.05;2.83;;;17.30;99.90;;;;;;5021746;28;20041;-75
2023/07/01 02:11:02;;;;;;;13.50;3.35;;;17.30;99.90;;;;;;5005690;28;20259;-75
2023/07/01 02:13:28;;;;;;;10.75;3.22;;;17.10;99.90;;;;;;5005252;28;20127;-75
2023/07/01 02:15:54;;;;;;;10.23;3.15;;;17.00;99.90;;;;;;5021784;28;20033;-75
2023/07/01 02:18:19;;;;;;;11.60;3.00;;;16.90;99.90;;;;;;5001764;28;20042;-75
2023/07/01 02:20:45;;;;;;;9.88;3.38;;;16.90;99.90;;;;;;5012772;28;20336;-75
2023/07/01 02:23:11;;;;;;;9.52;3.30;;;16.80;99.90;;;;;;5021492;28;20034;-75
2023/07/01 02:25:36;;;;;;;12.02;3.45;;;16.80;99.90;;;;;;4994374;28;20110;-75
2023/07/01 02:28:02;;;;;;;10.98;3.40;;;16.80;99.90;;;;;;5021310;28;20216;-74
2023/07/01 02:30:28;;;;;;;11.75;3.40;;;16.80;99.90;;;;;;5021674;28;20187;-75
2023/07/01 02:32:54;;;;;;;12.50;3.60;;;16.80;99.90;;;;;;5005028;28;20026;-75
2023/07/01 02:35:19;;;;;;;10.73;3.30;;;16.80;99.90;;;;;;5021416;28;20132;-75
2023/07/01 02:37:45;;;;;;;10.38;3.40;;;16.80;99.90;;;;;;5004971;28;20061;-75
2023/07/01 02:40:11;;;;;;;9.90;3.60;;;16.80;99.90;;;;;;5005135;28;20022;-75
2023/07/01 02:42:36;;;;;;;9.93;3.55;;;16.80;99.90;;;;;;5004912;28;20175;-75
2023/07/01 02:45:04;;;;;;;11.85;3.67;;;16.80;99.90;;;;;;5005009;28;20078;-75
2023/07/01 02:47:30;;;;;;;10.45;3.50;;;16.80;99.90;;;;;;5021014;28;20338;-75
2023/07/01 02:49:56;;;;;;;12.90;3.97;;;16.80;99.90;;;;;;5021275;28;20041;-75
2023/07/01 02:52:22;;;;;;;10.10;3.75;;;16.80;99.90;;;;;;5004552;28;20272;-75
2023/07/01 02:54:48;;;;;;;11.13;3.90;;;16.80;99.90;;;;;;5021290;28;20072;-74
2023/07/01 02:57:14;;;;;;;9.82;3.60;;;16.90;99.90;;;;;;5004862;28;20030;-75
2023/07/01 02:59:39;;;;;;;12.65;3.95;;;16.80;99.90;;;;;;5021022;28;20022;-74
2023/07/01 03:02:06;;;;;;;11.15;4.00;;;16.90;99.90;;;;;;5004487;28;20276;-74
2023/07/01 03:04:35;;;;;;;10.30;4.00;;;16.90;99.90;;;;;;5003966;28;20030;-75
2023/07/01 03:07:02;;;;;;;10.18;3.90;;;16.90;99.90;;;;;;5020608;28;20318;-75
2023/07/01 03:09:27;;;;;;;12.18;3.90;;;16.90;99.90;;;;;;5021234;28;20014;-75
2023/07/01 03:11:53;;;;;;;11.77;4.43;;;16.90;99.90;;;;;;5004608;28;20165;-75
2023/07/01 03:14:20;;;;;;;12.23;4.38;;;16.90;99.90;;;;;;5004599;28;20085;-75
2023/07/01 03:16:46;;;;;;;13.13;4.53;;;16.90;99.90;;;;;;5020743;28;20269;-75
2023/07/01 03:19:12;;;;;;;13.60;4.22;;;16.90;99.90;;;;;;5015097;28;20030;-74
2023/07/01 03:21:38;;;;;;;15.25;4.20;;;16.80;99.90;;;;;;5004364;28;20048;-75
2023/07/01 03:24:04;;;;;;;11.20;4.05;;;16.90;99.90;;;;;;5014828;28;20046;-75
2023/07/01 03:26:30;;;;;;;11.93;4.70;;;16.80;99.90;;;;;;5013962;28;20048;-75
2023/07/01 03:28:55;;;;;;;12.10;4.40;;;16.80;99.90;;;;;;5004251;28;20279;-75
2023/07/01 03:31:22;;;;;;;10.48;4.50;;;16.80;99.90;;;;;;5004262;28;20219;-75
2023/07/01 03:33:48;;;;;;;10.73;4.43;;;16.80;99.90;;;;;;5020871;28;20247;-75
2023/07/01 03:36:14;;;;;;;9.43;3.95;;;16.80;99.90;;;;;;5004313;28;20340;-75
2023/07/01 03:38:40;;;;;;;10.98;4.15;;;16.80;99.90;;;;;;5003973;28;20036;-75
2023/07/01 03:41:09;;;;;;;8.95;3.75;;;16.80;99.90;;;;;;5020432;28;20033;-75
2023/07/01 03:43:35;;;;;;;10.23;4.22;;;16.70;99.90;;;;;;5020298;28;20040;-75
2023/07/01 03:46:01;;;;;;;14.18;4.45;;;16.70;99.90;;;;;;5020308;28;20255;-74
2023/07/01 03:48:27;;;;;;;14.60;3.90;;;16.70;99.90;;;;;;4987261;28;20041;-75
2023/07/01 03:50:53;;;;;;;9.85;3.78;;;16.70;99.90;;;;;;5020445;28;20264;-75
2023/07/01 03:53:19;;;;;;;11.60;4.30;;;16.70;99.90;;;;;;5020021;28;20047;-75
2023/07/01 03:55:45;;;;;;;9.60;3.80;;;16.70;99.90;;;;;;5020324;28;20053;-75
2023/07/01 03:58:11;;;;;;;10.32;4.00;;;16.60;99.90;;;;;;5020167;28;20259;-75
2023/07/01 04:00:36;;;;;;;10.57;4.00;;;16.60;99.90;;;;;;5003788;28;20053;-75
2023/07/01 04:03:05;;;;;;;11.40;4.10;;;16.60;99.90;;;;;;5003669;28;20025;-75
2023/07/01 04:05:35;;;;;;;11.02;3.92;;;16.60;99.90;;;;;;5020020;28;20101;-75
2023/07/01 04:08:01;;;;;;;11.15;3.92;;;16.60;99.90;;;;;;5003692;28;20059;-74
2023/07/01 04:10:27;;;;;;;11.98;3.80;;;16.60;99.90;;;;;;5019931;28;20025;-75
2023/07/01 04:12:53;;;;;;;10.77;4.00;;;16.60;99.90;;;;;;5003306;28;20025;-75
2023/07/01 04:15:19;;;;;;;10.27;3.63;;;16.60;99.90;;;;;;5003529;28;20092;-75
2023/07/01 04:17:48;;;;;;;9.70;3.55;;;16.60;99.90;;;;;;5001589;28;20025;-75
2023/07/01 04:20:14;;;;;;;10.43;3.53;;;16.60;99.90;;;;;;5002780;28;20030;-75
2023/07/01 04:22:41;;;;;;;9.48;3.47;;;16.60;99.90;;;;;;5019805;28;20039;-75
2023/07/01 04:25:08;;;;;;;11.55;3.78;;;16.60;99.90;;;;;;5019760;28;20089;-75
2023/07/01 04:27:35;;;;;;;8.60;3.30;;;16.60;99.90;;;;;;5003142;28;20030;-75
2023/07/01 04:30:01;;;;;;;10.32;3.40;;;16.60;99.90;;;;;;5003507;28;20180;-75
2023/07/01 04:32:28;;;;;;;9.45;3.58;;;16.60;99.90;;;;;;5019596;28;20071;-75
2023/07/01 04:34:54;;;;;;;10.23;3.65;;;16.60;99.90;;;;;;5003573;28;20176;-75
2023/07/01 04:37:20;;;;;;;8.27;3.50;;;16.60;99.90;;;;;;5019297;28;20029;-75
2023/07/01 04:39:46;;;;;;;11.40;3.90;;;16.60;99.90;;;;;;5019474;28;20159;-75
2023/07/01 04:42:12;;;;;;;9.38;3.70;;;16.60;99.90;;;;;;5019492;28;20045;-75
2023/07/01 04:44:38;;;;;;;9.68;3.60;;;16.70;99.90;;;;;;5019544;28;20255;-75
2023/07/01 04:47:03;;;;;;;9.70;3.55;;;16.70;99.90;;;;;;5019637;28;20021;-75
2023/07/01 04:49:29;;;;;;;10.05;3.50;;;16.70;99.90;;;;;;5019449;28;20017;-75
2023/07/01 04:51:56;;;;;;;10.23;3.70;;;16.70;99.90;;;;;;5019177;28;20025;-75
2023/07/01 04:54:22;;;;;;;10.02;3.65;;;16.70;99.90;;;;;;5003042;28;20021;-75
2023/07/01 04:56:47;;;;;;;9.45;4.32;;;16.70;99.90;;;;;;5019035;28;20032;-75
2023/07/01 04:59:13;;;;;;;9.85;3.90;;;16.80;99.90;;;;;;5002864;28;20030;-74
2023/07/01 05:01:39;;;;;;;10.63;3.38;;;16.80;99.90;;;;;;4986481;28;20041;-75
2023/07/01 05:04:05;;;;;;;8.48;3.90;;;16.80;99.90;;;;;;5002914;28;20053;-75
2023/07/01 05:06:31;;;;;;;10.40;3.90;;;16.80;99.90;;;;;;4983348;28;20049;-74
2023/07/01 05:08:57;;;;;;;11.43;4.65;;;16.90;99.90;;;;;;4994152;28;20032;-75
2023/07/01 05:11:23;;;;;;;10.65;4.25;;;16.80;99.90;;;;;;5018795;28;20033;-75
2023/07/01 05:13:49;;;;;;;11.50;4.38;;;16.80;99.90;;;;;;5002898;28;20032;-75
2023/07/01 05:16:15;;;;;;;11.00;4.20;;;16.90;99.90;;;;;;5002786;28;20038;-75
2023/07/01 05:18:41;;;;;;;10.75;4.22;;;16.90;99.90;;;;;;5018689;28;20033;-76
2023/07/01 05:21:06;;;;;;;13.60;4.57;;;16.90;99.90;;;;;;5002764;28;20021;-75
2023/07/01 05:23:32;;;;;;;9.77;4.10;;;16.90;99.90;;;;;;5002530;28;20076;-75
2023/07/01 05:25:58;;;;;;;12.02;4.25;;;16.90;99.90;;;;;;5002587;28;20042;-75
2023/07/01 05:28:24;;;;;;;10.77;4.28;;;16.90;99.90;;;;;;5018005;28;20045;-75
2023/07/01 05:30:50;;;;;;;10.50;4.38;;;17.00;99.90;;;;;;4983183;28;20183;-76
2023/07/01 05:33:16;;;;;;;10.52;4.22;;;17.00;99.90;;;;;;5001611;28;20026;-75
2023/07/01 05:35:41;;;;;;;11.52;4.30;;;17.00;99.90;;;;;;5018850;28;20053;-75
2023/07/01 05:38:12;;;;;;;10.35;4.20;;;17.00;99.90;;;;;;5002233;28;20030;-75
2023/07/01 05:40:38;;;;;;;8.52;3.80;;;17.00;99.90;;;;;;5002464;28;20111;-75
2023/07/01 05:43:04;;;;;;;9.98;4.13;;;17.00;99.90;;;;;;5018625;28;20075;-75
2023/07/01 05:45:30;;;;;;;9.35;4.03;;;17.10;99.90;;;;;;5018650;28;20030;-75
2023/07/01 05:47:56;;;;;;;11.52;4.57;;;17.10;99.90;;;;;;5002436;28;20048;-75
2023/07/01 05:50:22;;;;;;;10.60;4.03;;;17.10;99.90;;;;;;5002215;28;20014;-75
2023/07/01 05:52:48;;;;;;;10.75;3.92;;;17.10;99.90;;;;;;5018296;28;20026;-75
2023/07/01 05:55:14;;;;;;;11.23;4.38;;;17.10;99.90;;;;;;5018581;28;20282;-75
2023/07/01 05:57:40;;;;;;;11.50;4.15;;;17.10;99.90;;;;;;5018373;28;20026;-75
2023/07/01 06:00:09;;;;;;;10.20;4.30;;;17.10;99.90;;;;;;5018385;28;20029;-75
2023/07/01 06:02:35;;;;;;;12.60;4.18;;;17.20;99.90;;;;;;5002264;28;20076;-75
2023/07/01 06:05:00;;;;;;;8.88;3.90;;;17.20;99.90;;;;;;5018764;28;20034;-75
2023/07/01 06:07:26;;;;;;;9.95;4.20;;;17.20;99.90;;;;;;5018362;28;20021;-75
2023/07/01 06:09:52;;;;;;;10.23;4.20;;;17.20;99.90;;;;;;5018377;28;20022;-75
2023/07/01 06:12:18;;;;;;;13.82;4.80;;;17.20;99.90;;;;;;5002028;28;20094;-74
2023/07/01 06:14:43;;;;;;;12.38;4.63;;;17.20;99.90;;;;;;5001853;28;20061;-75
2023/07/01 06:17:09;;;;;;;10.18;4.45;;;17.20;99.90;;;;;;5001706;28;20025;-75
2023/07/01 06:19:35;;;;;;;10.35;4.40;;;17.20;99.90;;;;;;5004914;28;20045;-75
2023/07/01 06:22:00;;;;;;;9.70;4.50;;;17.20;99.90;;;;;;5018248;28;20090;-75
2023/07/01 06:24:26;;;;;;;9.13;4.15;;;17.20;99.90;;;;;;5018278;28;20298;-75
2023/07/01 06:26:52;;;;;;;11.13;4.55;;;17.20;99.90;;;;;;5001732;28;20038;-75
2023/07/01 06:29:17;;;;;;;12.10;4.72;;;17.20;99.90;;;;;;5001726;28;20037;-76
2023/07/01 06:31:43;;;;;;;11.15;4.95;;;17.20;99.90;;;;;;5017966;28;20313;-77
2023/07/01 06:34:15;;;;;;;11.48;4.68;;;17.20;99.90;;;;;;5001993;28;20014;-76
2023/07/01 06:36:41;;;;;;;13.32;4.70;;;17.10;99.90;;;;;;5018168;28;20033;-76
2023/07/01 06:39:07;;;;;;;11.23;5.18;;;17.10;99.90;;;;;;5002351;28;20026;-75
2023/07/01 06:41:32;;;;;;;9.70;4.70;;;17.10;99.90;;;;;;5021480;28;20210;-75
2023/07/01 06:43:59;;;;;;;10.73;5.03;;;17.00;99.90;;;;;;5005174;28;20014;-75
2023/07/01 06:46:26;;;;;;;10.73;4.93;;;17.00;99.90;;;;;;5021359;28;20283;-78
2023/07/01 06:48:52;;;;;;;9.98;4.85;;;17.00;99.90;;;;;;5021737;28;20014;-76
2023/07/01 06:51:17;;;;;;;11.68;4.82;;;16.90;99.90;;;;;;5021248;28;20256;-76
2023/07/01 06:53:43;;;;;;;13.35;5.30;;;16.90;99.90;;;;;;5021079;28;20067;-76
2023/07/01 06:56:09;;;;;;;11.15;5.20;;;16.90;99.90;;;;;;4985284;28;20140;-76
2023/07/01 06:58:35;;;;;;;11.95;4.78;;;16.90;99.90;;;;;;5012019;28;20118;-76
2023/07/01 07:01:01;;;;;;;11.00;5.15;;;16.90;99.90;;;;;;5004639;28;20038;-76
2023/07/01 07:03:26;;;;;;;14.80;4.95;;;17.00;99.90;;;;;;5004613;28;20336;-76
2023/07/01 07:05:54;;;;;;;10.73;5.20;;;17.00;99.90;;;;;;5021007;28;20089;-76
2023/07/01 07:08:20;;;;;;;12.30;5.22;;;17.00;99.90;;;;;;5020804;28;20264;-76
2023/07/01 07:10:46;;;;;;;10.15;5.25;;;17.10;99.90;;;;;;5004611;28;20021;-76
2023/07/01 07:13:12;;;;;;;10.23;5.03;;;17.10;99.90;;;;;;5004531;28;20198;-76
2023/07/01 07:15:40;;;;;;;11.27;5.43;;;17.10;99.90;;;;;;5004487;28;20026;-76
2023/07/01 07:18:09;;;;;;;10.30;5.10;;;17.00;99.90;;;;;;5020564;28;20022;-76
2023/07/01 07:20:36;;;;;;;11.60;4.95;;;17.10;99.90;;;;;;5020693;28;20026;-76
2023/07/01 07:23:04;;;;;;;10.55;5.43;;;17.10;99.90;;;;;;5020572;28;20302;-76
2023/07/01 07:25:29;;;;;;;10.95;5.13;;;17.10;99.90;;;;;;5004514;28;20184;-76
2023/07/01 07:27:55;;;;;;;10.57;4.82;;;17.20;99.90;;;;;;5004197;28;20150;-76
2023/07/01 07:30:22;;;;;;;9.38;4.80;;;17.20;99.90;;;;;;4984828;28;20033;-76
2023/07/01 07:32:48;;;;;;;9.88;4.68;;;17.30;99.90;;;;;;5019876;28;20029;-76
2023/07/01 07:35:13;;;;;;;9.65;5.10;;;17.30;99.90;;;;;;5004491;28;20094;-76
2023/07/01 07:37:39;;;;;;;9.50;4.85;;;17.30;99.90;;;;;;5020291;28;20110;-76
2023/07/01 07:40:07;;;;;;;11.90;4.85;;;17.30;99.90;;;;;;5004297;28;20038;-76
2023/07/01 07:42:33;;;;;;;9.10;4.53;;;17.30;99.90;;;;;;5020357;28;20029;-76
2023/07/01 07:44:59;;;;;;;9.63;5.05;;;17.30;99.90;;;;;;5004193;28;20017;-76
2023/07/01 07:47:25;;;;;;;8.18;3.97;;;17.40;99.90;;;;;;5020085;28;20183;-76
2023/07/01 07:49:50;;;;;;;8.73;4.30;;;17.40;99.90;;;;;;5020031;28;20022;-75
2023/07/01 07:52:16;;;;;;;9.45;4.30;;;17.40;99.90;;;;;;5020221;28;20085;-76
2023/07/01 07:54:42;;;;;;;8.40;4.25;;;17.50;99.90;;;;;;5020294;28;20029;-76
2023/07/01 07:57:08;;;;;;;9.10;4.43;;;17.50;99.90;;;;;;5019989;28;20018;-76
2023/07/01 07:59:33;;;;;;;8.95;4.38;;;17.50;99.90;;;;;;5004103;28;20204;-76
2023/07/01 08:02:00;;;;;;;8.05;4.28;;;17.50;99.90;;;;;;5003676;28;20037;-76
2023/07/01 08:04:26;;;;;;;9.13;4.45;;;17.50;99.90;;;;;;5003962;28;20221;-75
2023/07/01 08:06:52;;;;;;;10.07;4.70;;;17.60;99.90;;;;;;5019865;28;20299;-75
2023/07/01 08:09:19;;;;;;;8.43;4.45;;;17.60;99.90;;;;;;5020058;28;20044;-75
2023/07/01 08:11:44;;;;;;;8.10;4.40;;;17.70;99.90;;;;;;5003609;28;20086;-75
2023/07/01 08:14:10;;;;;;;8.88;4.28;;;17.70;99.90;;;;;;5003763;28;20068;-75
2023/07/01 08:16:37;;;;;;;8.18;4.15;;;17.80;99.90;;;;;;5003421;28;20093;-75
2023/07/01 08:19:03;;;;;;;7.70;4.00;;;17.90;99.90;;;;;;5019760;28;20034;-75
2023/07/01 08:21:29;;;;;;;8.82;4.35;;;17.90;99.90;;;;;;5003491;28;20025;-76
2023/07/01 08:23:55;;;;;;;9.15;4.60;;;17.90;99.90;;;;;;5003644;28;20157;-76
2023/07/01 08:26:21;;;;;;;8.63;4.57;;;17.90;99.90;;;;;;5019517;28;20034;-76
2023/07/01 08:28:47;;;;;;;8.70;4.50;;;19.00;99.90;;;;;;5003370;28;20045;-76
2023/07/01 08:31:12;;;;;;;9.75;4.82;;;17.90;99.90;;;;;;5019691;28;20107;-76
2023/07/01 08:33:38;;;;;;;8.88;5.00;;;17.90;99.90;;;;;;5019804;28;20049;-76
2023/07/01 08:36:04;;;;;;;9.63;4.82;;;17.80;99.90;;;;;;5019765;28;20033;-76
2023/07/01 08:38:30;;;;;;;8.32;4.72;;;17.90;99.90;;;;;;5019454;28;20103;-76
2023/07/01 08:41:02;;;;;;;9.40;5.00;;;17.90;99.90;;;;;;5019618;28;20034;-76
2023/07/01 08:43:30;;;;;;;9.40;4.68;;;18.00;99.90;;;;;;5019386;28;20101;-76
2023/07/01 08:46:03;;;;;;;9.65;5.32;;;18.00;99.90;;;;;;5003171;28;20026;-76
2023/07/01 08:48:32;;;;;;;9.23;5.22;;;18.10;99.90;;;;;;5019416;28;20155;-76
2023/07/01 08:51:14;;;;;;;9.07;5.10;;;18.10;99.90;;;;;;5019489;28;20241;-76
2023/07/01 08:53:42;;;;;;;8.45;4.57;;;18.10;99.90;;;;;;5019314;28;20022;-76
2023/07/01 08:56:09;;;;;;;9.68;4.80;;;18.10;99.90;;;;;;5019327;28;20034;-76
2023/07/01 08:58:35;;;;;;;9.13;5.10;;;18.10;99.90;;;;;;5019055;28;20029;-76
2023/07/01 09:01:00;;;;;;;8.52;5.00;;;18.10;99.90;;;;;;5019411;28;20029;-76
2023/07/01 09:03:27;;;;;;;8.80;5.07;;;18.20;99.90;;;;;;5001910;28;20103;-76
2023/07/01 09:05:53;;;;;;;9.52;4.85;;;18.20;99.90;;;;;;5019027;28;20081;-76
2023/07/01 09:08:19;;;;;;;8.68;4.45;;;18.20;99.90;;;;;;5002779;28;20026;-76
2023/07/01 09:10:45;;;;;;;8.82;5.00;;;18.20;99.90;;;;;;5019124;28;20170;-76
2023/07/01 09:13:13;;;;;;;8.50;4.50;;;18.20;99.90;;;;;;5018911;28;20047;-75
2023/07/01 09:15:47;;;;;;;8.88;4.50;;;18.30;99.90;;;;;;5019043;28;20057;-76
2023/07/01 09:18:22;;;;;;;8.43;4.93;;;18.30;99.90;;;;;;5002399;28;20022;-76
2023/07/01 09:20:50;;;;;;;8.27;4.80;;;18.40;99.90;;;;;;5019092;28;20093;-76
2023/07/01 09:23:32;;;;;;;8.55;4.82;;;18.60;99.90;;;;;;5018879;28;20032;-76
2023/07/01 09:26:10;;;;;;;8.60;4.43;;;18.70;99.90;;;;;;5002853;28;20029;-76
2023/07/01 09:28:38;;;;;;;8.80;4.72;;;18.80;99.90;;;;;;5018603;28;20042;-76
2023/07/01 09:31:06;;;;;;;8.13;4.30;;;18.80;99.90;;;;;;5018582;28;20042;-76
2023/07/01 09:33:34;;;;;;;7.88;4.30;;;18.90;99.90;;;;;;5018339;28;20087;-76
2023/07/01 09:36:01;;;;;;;8.25;4.10;;;18.80;99.90;;;;;;5002490;28;20029;-77
2023/07/01 09:38:28;;;;;;;7.90;4.35;;;18.70;99.90;;;;;;5018391;28;20097;-77
2023/07/01 09:40:53;;;;;;;8.05;4.53;;;18.80;99.90;;;;;;5002771;28;20029;-77
2023/07/01 09:43:19;;;;;;;9.98;4.43;;;18.80;99.90;;;;;;5002116;28;20026;-76
2023/07/01 09:46:03;;;;;;;9.02;4.65;;;18.80;99.90;;;;;;4982788;28;20030;-77
2023/07/01 09:48:29;;;;;;;8.98;4.07;;;18.80;99.90;;;;;;4998427;28;20037;-77
2023/07/01 09:51:03;;;;;;;8.13;4.53;;;18.80;99.90;;;;;;5018724;28;20266;-77
2023/07/01 09:53:34;;;;;;;8.27;4.53;;;18.80;99.90;;;;;;5018412;28;20037;-77
2023/07/01 09:56:04;;;;;;;8.07;4.30;;;18.80;99.90;;;;;;5002334;28;20075;-77
2023/07/01 09:58:34;;;;;;;8.00;4.30;;;18.70;99.90;;;;;;5018491;28;20038;-77
2023/07/01 10:01:00;;;;;;;8.35;4.40;;;18.70;99.90;;;;;;5018726;28;20033;-76
2023/07/01 10:03:26;;;;;;;8.48;4.65;;;18.70;99.90;;;;;;5018126;28;20026;-77
2023/07/01 10:05:53;;;;;;;8.00;4.20;;;18.70;99.90;;;;;;5018466;28;20045;-77
2023/07/01 10:08:19;;;;;;;8.30;4.45;;;18.80;99.90;;;;;;5001999;28;20078;-76
2023/07/01 10:11:03;;;;;;;9.00;4.80;;;18.80;99.90;;;;;;5002214;28;20026;-76
2023/07/01 10:13:30;;;;;;;8.30;4.60;;;18.80;99.90;;;;;;5019231;28;20047;-76
2023/07/01 10:15:57;;;;;;;8.00;3.97;;;18.80;99.90;;;;;;5021706;28;20034;-76
2023/07/01 10:18:23;;;;;;;8.45;4.22;;;18.80;99.90;;;;;;5021321;28;20294;-76
2023/07/01 10:20:50;;;;;;;8.30;4.47;;;18.90;99.90;;;;;;5005397;28;20030;-76
2023/07/01 10:23:18;;;;;;;7.82;3.90;;;18.90;99.90;;;;;;5004946;28;20037;-76
2023/07/01 10:25:43;;;;;;;8.30;4.22;;;18.90;99.90;;;;;;5021638;28;20283;-76
2023/07/01 10:28:10;;;;;;;8.43;3.72;;;18.80;99.90;;;;;;5004793;28;20034;-76
2023/07/01 10:30:42;;;;;;;8.07;3.70;;;18.80;99.90;;;;;;5021710;28;20022;-76
2023/07/01 10:33:27;;;;;;;8.20;3.80;;;18.80;99.90;;;;;;5005144;28;20033;-76
2023/07/01 10:36:17;;;;;;;7.10;3.38;;;18.80;99.90;;;;;;5021631;28;20041;-76
2023/07/01 10:38:43;;;;;;;6.35;2.50;;;18.80;99.90;;;;;;5021328;28;20030;-75
2023/07/01 10:41:09;;;;;;;6.70;2.72;;;18.80;99.90;;;;;;5021552;28;20078;-76
2023/07/01 10:43:37;;;;;;;6.25;2.53;;;18.80;99.90;;;;;;5021132;28;20078;-76
2023/07/01 10:46:23;;;;;;;6.05;2.45;;;18.90;99.90;;;;;;5021322;28;20308;-76
2023/07/01 10:49:04;;;;;;;5.65;1.92;;;18.80;99.90;;;;;;5021348;28;20289;-76
2023/07/01 10:51:45;;;;;;;5.78;2.30;;;18.70;99.90;;;;;;5004804;28;20022;-76
2023/07/01 10:54:10;;;;;;;5.43;2.20;;;18.70;99.90;;;;;;5021502;28;20026;-77
2023/07/01 10:57:01;;;;;;;5.18;2.20;;;18.80;99.90;;;;;;5021029;28;20029;-77
2023/07/01 10:59:29;;;;;;;6.55;2.30;;;18.80;99.90;;;;;;5021099;28;20235;-77
2023/07/01 11:01:59;;;;;;;7.65;2.50;;;18.90;99.90;;;;;;5004628;28;20030;-77
2023/07/01 11:04:45;;;;;;;7.13;2.28;;;19.00;99.90;;;;;;5021297;28;20045;-77
2023/07/01 11:07:11;;;;;;;6.53;2.20;;;19.10;99.90;;;;;;5007269;28;20308;-77
2023/07/01 11:09:36;;;;;;;5.15;2.10;;;19.10;99.90;;;;;;5004582;28;20040;-77
2023/07/01 11:12:06;;;;;;;5.93;2.25;;;19.30;99.90;;;;;;5020740;28;20025;-78
2023/07/01 11:14:35;;;;;;;5.68;2.30;;;19.30;99.90;;;;;;5020967;28;20061;-77
2023/07/01 11:17:09;;;;;;;4.18;1.85;;;19.50;99.90;;;;;;5020845;28;20026;-77
2023/07/01 11:19:35;;;;;;;4.53;1.80;;;19.50;99.90;;;;;;5001919;28;20025;-77
2023/07/01 11:22:01;;;;;;;4.20;1.80;;;19.50;99.90;;;;;;5004423;28;20050;-77
2023/07/01 11:24:29;;;;;;;7.63;2.30;;;19.50;99.90;;;;;;5004257;28;20063;-77
2023/07/01 11:27:07;;;;;;;6.80;2.60;;;19.50;99.90;;;;;;5020241;28;20025;-77
2023/07/01 11:29:33;;;;;;;6.78;2.63;;;19.50;99.90;;;;;;5004697;28;20273;-77
2023/07/01 11:32:00;;;;;;;7.43;2.70;;;19.50;99.90;;;;;;5004419;28;20118;-78
2023/07/01 11:34:27;;;;;;;7.80;2.80;;;19.40;99.90;;;;;;5020711;28;20018;-78
2023/07/01 11:36:54;;;;;;;7.55;2.80;;;19.30;99.90;;;;;;5020353;28;20034;-78
2023/07/01 11:39:20;;;;;;;6.72;2.78;;;19.30;99.90;;;;;;5004573;28;20026;-77
2023/07/01 11:41:51;;;;;;;7.97;2.60;;;19.20;99.90;;;;;;5020431;28;20053;-77
2023/07/01 11:44:20;;;;;;;7.38;2.60;;;19.10;99.90;;;;;;5020601;28;20233;-77
2023/07/01 11:46:46;;;;;;;7.10;3.08;;;19.10;99.90;;;;;;5020289;28;20064;-77
2023/07/01 11:49:21;;;;;;;7.10;2.90;;;19.10;99.90;;;;;;5020660;28;20030;-77
2023/07/01 11:51:58;;;;;;;8.45;3.28;;;19.10;99.90;;;;;;5003862;28;20029;-77
2023/07/01 11:54:45;;;;;;;7.88;3.25;;;19.10;99.90;;;;;;5020425;28;20034;-77
2023/07/01 11:57:19;;;;;;;8.63;3.15;;;19.10;99.90;;;;;;5003863;28;20075;-77
2023/07/01 11:59:52;;;;;;;7.82;3.25;;;19.10;99.90;;;;;;5004297;28;20113;-77
2023/07/01 12:02:28;;;;;;;9.73;3.80;;;19.10;99.90;;;;;;5003827;28;20180;-77
2023/07/01 12:04:54;;;;;;;10.15;4.03;;;19.10;99.90;;;;;;5020315;28;20030;-77
2023/07/01 12:07:20;;;;;;;9.85;3.95;;;19.10;99.90;;;;;;5003698;28;20014;-77
2023/07/01 12:09:46;;;;;;;8.48;4.25;;;19.10;99.90;;;;;;5020048;28;20314;-77
2023/07/01 12:12:32;;;;;;;10.05;4.50;;;19.30;99.90;;;;;;5019989;28;20017;-77
2023/07/01 12:15:06;;;;;;;10.27;4.55;;;19.40;99.90;;;;;;5009937;28;20030;-77
2023/07/01 12:17:31;;;;;;;11.05;4.65;;;19.50;99.90;;;;;;5004188;28;20057;-77
2023/07/01 12:19:58;;;;;;;9.60;5.30;;;19.50;99.90;;;;;;4984107;28;20019;-77
2023/07/01 12:22:28;;;;;;;12.13;5.57;;;19.40;99.90;;;;;;5085648;28;20026;-77
2023/07/01 12:24:56;;;;;;;11.07;6.10;;;19.40;99.90;;;;;;5016678;28;20018;-76
2023/07/01 12:27:22;;;;;;;9.50;5.50;;;19.40;99.90;;;;;;5016266;28;20316;-77
2023/07/01 12:29:48;;;;;;;10.60;6.45;;;19.50;99.90;;;;;;5002760;28;20294;-76
2023/07/01 12:32:13;;;;;;;11.82;6.38;;;19.60;99.90;;;;;;5003080;28;20054;-76
2023/07/01 12:34:39;;;;;;;13.43;6.40;;;19.90;99.90;;;;;;5019697;28;20069;-76
2023/07/01 12:37:07;;;;;;;11.02;6.57;;;20.10;99.90;;;;;;5002050;28;20041;-76
2023/07/01 12:39:33;;;;;;;11.65;6.97;;;20.50;99.90;;;;;;5019832;28;20032;-76
2023/07/01 12:41:59;;;;;;;11.65;5.80;;;20.70;99.90;;;;;;5019456;28;20025;-76
2023/07/01 12:44:25;;;;;;;11.57;6.43;;;20.70;99.90;;;;;;5019768;28;20109;-76
2023/07/01 12:46:51;;;;;;;9.48;5.38;;;20.60;99.90;;;;;;5019161;28;20155;-76